PWSweather.com
Personal Weather Stations
Station Observations
SEVANL01
SevillaES 41004

SevillaES 41004

Lat: 37.383633, Lon: -5.985787

Elevation: 19.685

Station Type: Davis Vantage Pro2

www.tiempoensevilla.es

High Low Average
Temperature 64.5°F18.1°C 50.1°F10.1°C 56.9°F13.8°C
Dew Point 56.3°F13.5°C 42.1°F5.6°C 45.7°F7.6°C
Winds 8.4 mph 13.5 kmh Calm Calm 3.0 mph SW4.8 kmh SW
Wind Gusts 19.0 mph30.6 kmh -- 7.0 mph11.3 kmh
Humidity 91% 45% 67%
Pressure 30.06 in1017.9 mb 29.84 in1010.5 mb -
Precipitation 0.05 in1.3 mm - -
Hour Temp Dew Point Humidity Winds Wind Gusts Pressure Precip Precip Rate Daily Precip Total
12:00 AM 58.8°F14.9°C 54.3°F12.4°C 85% 4.7 mph SW7.6 kmh SW 12.0 mph19.3 kmh 29.90 in1012.5 mb 0.00 in0.0 mm 0.00 in0.0 mm 0.00 in0.0 mm
12:20 AM 58.9°F14.9°C 54.4°F12.4°C 85% 5.5 mph WSW8.9 kmh WSW 10.0 mph16.1 kmh 29.90 in1012.5 mb 0.00 in0.0 mm 0.00 in0.0 mm 0.00 in0.0 mm
12:40 AM 59.1°F15.1°C 54.6°F12.6°C 85% 5.0 mph WSW8.0 kmh WSW 12.0 mph19.3 kmh 29.89 in1012.2 mb 0.00 in0.0 mm 0.00 in0.0 mm 0.00 in0.0 mm
01:00 AM 59.1°F15.1°C 55.2°F12.9°C 87% 2.7 mph WNW4.3 kmh WNW 4.0 mph6.4 kmh 29.87 in1011.5 mb 0.00 in0.0 mm 0.00 in0.0 mm 0.00 in0.0 mm
01:20 AM 59.4°F15.2°C 56.2°F13.4°C 89% 5.6 mph SW9.0 kmh SW 17.0 mph27.4 kmh 29.85 in1010.8 mb 0.00 in0.0 mm 0.00 in0.0 mm 0.00 in0.0 mm
01:40 AM 59.9°F15.5°C 56.3°F13.5°C 88% 8.4 mph WSW13.5 kmh WSW 19.0 mph30.6 kmh 29.84 in1010.5 mb 0.00 in0.0 mm 0.00 in0.0 mm 0.00 in0.0 mm
02:00 AM 59.0°F15.0°C 55.1°F12.8°C 87% 8.3 mph WNW13.4 kmh WNW 17.0 mph27.4 kmh 29.85 in1010.8 mb 0.04 in1.0 mm 0.06 in1.5 mm 0.04 in1.0 mm
02:20 AM 57.6°F14.2°C 55.0°F12.8°C 91% 3.1 mph NW5.0 kmh NW 5.0 mph8.0 kmh 29.84 in1010.5 mb 0.04 in1.0 mm 0.00 in0.0 mm 0.04 in1.0 mm
02:40 AM 57.6°F14.2°C 54.7°F12.6°C 90% 3.5 mph NW5.6 kmh NW 13.0 mph20.9 kmh 29.85 in1010.8 mb 0.04 in1.0 mm 0.00 in0.0 mm 0.04 in1.0 mm
03:00 AM 57.6°F14.2°C 52.8°F11.6°C 84% 5.2 mph NW8.4 kmh NW 15.0 mph24.1 kmh 29.86 in1011.2 mb 0.01 in0.3 mm 0.00 in0.0 mm 0.05 in1.3 mm
03:20 AM 56.9°F13.8°C 50.5°F10.3°C 79% 5.1 mph NW8.2 kmh NW 12.0 mph19.3 kmh 29.86 in1011.2 mb 0.01 in0.3 mm 0.00 in0.0 mm 0.05 in1.3 mm
03:40 AM 56.0°F13.3°C 48.5°F9.2°C 76% 5.9 mph NW9.5 kmh NW 13.0 mph20.9 kmh 29.88 in1011.9 mb 0.01 in0.3 mm 0.00 in0.0 mm 0.05 in1.3 mm
04:00 AM 54.8°F12.7°C 46.3°F7.9°C 73% 5.3 mph NW8.5 kmh NW 13.0 mph20.9 kmh 29.88 in1011.9 mb 0.00 in0.0 mm 0.00 in0.0 mm 0.05 in1.3 mm
04:20 AM 53.8°F12.1°C 45.3°F7.4°C 73% 5.7 mph NW9.2 kmh NW 11.0 mph17.7 kmh 29.87 in1011.5 mb 0.00 in0.0 mm 0.00 in0.0 mm 0.05 in1.3 mm
04:40 AM 53.1°F11.7°C 44.7°F7.1°C 73% 5.3 mph NW8.5 kmh NW 13.0 mph20.9 kmh 29.87 in1011.5 mb 0.00 in0.0 mm 0.00 in0.0 mm 0.05 in1.3 mm
05:00 AM 52.3°F11.3°C 44.3°F6.8°C 74% 3.2 mph NW5.1 kmh NW 10.0 mph16.1 kmh 29.88 in1011.9 mb 0.00 in0.0 mm 0.00 in0.0 mm 0.05 in1.3 mm
05:20 AM 51.7°F10.9°C 44.0°F6.7°C 75% 4.6 mph NW7.4 kmh NW 9.0 mph14.5 kmh 29.89 in1012.2 mb 0.00 in0.0 mm 0.00 in0.0 mm 0.05 in1.3 mm
05:40 AM 51.4°F10.8°C 44.1°F6.7°C 76% 3.9 mph NW6.3 kmh NW 9.0 mph14.5 kmh 29.89 in1012.2 mb 0.00 in0.0 mm 0.00 in0.0 mm 0.05 in1.3 mm
06:00 AM 51.1°F10.6°C 43.8°F6.6°C 76% 3.8 mph WNW6.1 kmh WNW 8.0 mph12.9 kmh 29.91 in1012.9 mb 0.00 in0.0 mm 0.00 in0.0 mm 0.05 in1.3 mm
06:20 AM 50.5°F10.3°C 43.6°F6.4°C 77% 3.0 mph WNW4.8 kmh WNW 7.0 mph11.3 kmh 29.91 in1012.9 mb 0.00 in0.0 mm 0.00 in0.0 mm 0.05 in1.3 mm
06:40 AM 50.4°F10.2°C 43.5°F6.4°C 77% 2.7 mph NW4.3 kmh NW 6.0 mph9.7 kmh 29.93 in1013.5 mb 0.00 in0.0 mm 0.00 in0.0 mm 0.05 in1.3 mm
07:00 AM 50.3°F10.2°C 43.4°F6.3°C 77% 2.5 mph NW4.0 kmh NW 9.0 mph14.5 kmh 29.93 in1013.5 mb 0.00 in0.0 mm 0.00 in0.0 mm 0.05 in1.3 mm
07:20 AM 50.2°F10.1°C 42.9°F6.1°C 76% 3.1 mph NW5.0 kmh NW 8.0 mph12.9 kmh 29.93 in1013.5 mb 0.00 in0.0 mm 0.00 in0.0 mm 0.05 in1.3 mm
07:40 AM 50.5°F10.3°C 42.5°F5.8°C 74% 3.9 mph NW6.3 kmh NW 7.0 mph11.3 kmh 29.94 in1013.9 mb 0.00 in0.0 mm 0.00 in0.0 mm 0.05 in1.3 mm
08:00 AM 50.5°F10.3°C 42.5°F5.8°C 74% 3.0 mph NNW4.8 kmh NNW 8.0 mph12.9 kmh 29.95 in1014.2 mb 0.00 in0.0 mm 0.00 in0.0 mm 0.05 in1.3 mm
08:20 AM 50.2°F10.1°C 42.2°F5.7°C 74% 3.4 mph NW5.5 kmh NW 8.0 mph12.9 kmh 29.96 in1014.6 mb 0.00 in0.0 mm 0.00 in0.0 mm 0.05 in1.3 mm
08:40 AM 50.1°F10.1°C 42.1°F5.6°C 74% 2.6 mph NW4.2 kmh NW 7.0 mph11.3 kmh 29.96 in1014.6 mb 0.00 in0.0 mm 0.00 in0.0 mm 0.05 in1.3 mm
09:00 AM 50.2°F10.1°C 42.6°F5.9°C 75% 2.8 mph NW4.5 kmh NW 5.0 mph8.0 kmh 29.97 in1014.9 mb 0.00 in0.0 mm 0.00 in0.0 mm 0.05 in1.3 mm
09:20 AM 51.2°F10.7°C 42.5°F5.8°C 72% 2.0 mph NW3.2 kmh NW 9.0 mph14.5 kmh 29.97 in1014.9 mb 0.00 in0.0 mm 0.00 in0.0 mm 0.05 in1.3 mm
09:40 AM 52.4°F11.3°C 42.5°F5.8°C 69% 3.3 mph NW5.3 kmh NW 10.0 mph16.1 kmh 29.98 in1015.2 mb 0.00 in0.0 mm 0.00 in0.0 mm 0.05 in1.3 mm
10:00 AM 53.0°F11.7°C 42.3°F5.7°C 67% 4.9 mph NNW7.9 kmh NNW 10.0 mph16.1 kmh 29.98 in1015.2 mb 0.00 in0.0 mm 0.00 in0.0 mm 0.05 in1.3 mm
10:20 AM 53.2°F11.8°C 42.9°F6.1°C 68% 4.2 mph NNW6.8 kmh NNW 10.0 mph16.1 kmh 29.99 in1015.6 mb 0.00 in0.0 mm 0.00 in0.0 mm 0.05 in1.3 mm
10:40 AM 53.4°F11.9°C 42.7°F5.9°C 67% 4.3 mph NW6.9 kmh NW 12.0 mph19.3 kmh 29.99 in1015.6 mb 0.00 in0.0 mm 0.00 in0.0 mm 0.05 in1.3 mm
11:00 AM 53.7°F12.1°C 43.0°F6.1°C 67% 5.9 mph NW9.5 kmh NW 11.0 mph17.7 kmh 29.99 in1015.6 mb 0.00 in0.0 mm 0.00 in0.0 mm 0.05 in1.3 mm
11:20 AM 54.6°F12.6°C 44.2°F6.8°C 68% 4.7 mph N7.6 kmh N 10.0 mph16.1 kmh 30.00 in1015.9 mb 0.00 in0.0 mm 0.00 in0.0 mm 0.05 in1.3 mm
11:40 AM 55.1°F12.8°C 44.3°F6.8°C 67% 4.1 mph NNW6.6 kmh NNW 10.0 mph16.1 kmh 30.00 in1015.9 mb 0.00 in0.0 mm 0.00 in0.0 mm 0.05 in1.3 mm
12:00 PM 56.8°F13.8°C 45.2°F7.3°C 65% 3.4 mph N5.5 kmh N 9.0 mph14.5 kmh 30.00 in1015.9 mb 0.00 in0.0 mm 0.00 in0.0 mm 0.05 in1.3 mm
12:20 PM 57.7°F14.3°C 45.2°F7.3°C 63% 2.3 mph NE3.7 kmh NE 5.0 mph8.0 kmh 29.99 in1015.6 mb 0.00 in0.0 mm 0.00 in0.0 mm 0.05 in1.3 mm
12:40 PM 58.9°F14.9°C 44.6°F7.0°C 59% 2.6 mph NE4.2 kmh NE 9.0 mph14.5 kmh 29.99 in1015.6 mb 0.00 in0.0 mm 0.00 in0.0 mm 0.05 in1.3 mm
01:00 PM 59.1°F15.1°C 44.8°F7.1°C 59% 3.0 mph NE4.8 kmh NE 9.0 mph14.5 kmh 29.98 in1015.2 mb 0.00 in0.0 mm 0.00 in0.0 mm 0.05 in1.3 mm
01:20 PM 59.5°F15.3°C 44.7°F7.1°C 58% 4.0 mph N6.4 kmh N 9.0 mph14.5 kmh 29.98 in1015.2 mb 0.00 in0.0 mm 0.00 in0.0 mm 0.05 in1.3 mm
01:40 PM 60.0°F15.6°C 44.7°F7.1°C 57% 5.2 mph NE8.4 kmh NE 10.0 mph16.1 kmh 29.98 in1015.2 mb 0.00 in0.0 mm 0.00 in0.0 mm 0.05 in1.3 mm
02:00 PM 60.9°F16.1°C 44.6°F7.0°C 55% 2.8 mph NE4.5 kmh NE 6.0 mph9.7 kmh 29.97 in1014.9 mb 0.00 in0.0 mm 0.00 in0.0 mm 0.05 in1.3 mm
02:20 PM 61.1°F16.2°C 44.8°F7.1°C 55% 2.4 mph ENE3.9 kmh ENE 8.0 mph12.9 kmh 29.97 in1014.9 mb 0.00 in0.0 mm 0.00 in0.0 mm 0.05 in1.3 mm
02:40 PM 62.0°F16.7°C 45.2°F7.3°C 54% 1.9 mph SSE3.1 kmh SSE 4.0 mph6.4 kmh 29.97 in1014.9 mb 0.00 in0.0 mm 0.00 in0.0 mm 0.05 in1.3 mm
03:00 PM 62.1°F16.7°C 45.2°F7.3°C 54% 2.9 mph E4.7 kmh E 6.0 mph9.7 kmh 29.97 in1014.9 mb 0.00 in0.0 mm 0.00 in0.0 mm 0.05 in1.3 mm
03:20 PM 63.1°F17.3°C 44.7°F7.1°C 51% 2.0 mph SSW3.2 kmh SSW 6.0 mph9.7 kmh 29.97 in1014.9 mb 0.00 in0.0 mm 0.00 in0.0 mm 0.05 in1.3 mm
03:40 PM 63.6°F17.6°C 45.1°F7.3°C 51% 1.6 mph S2.6 kmh S 4.0 mph6.4 kmh 29.96 in1014.6 mb 0.00 in0.0 mm 0.00 in0.0 mm 0.05 in1.3 mm
04:00 PM 63.6°F17.6°C 43.5°F6.4°C 48% 2.0 mph SSE3.2 kmh SSE 6.0 mph9.7 kmh 29.97 in1014.9 mb 0.00 in0.0 mm 0.00 in0.0 mm 0.05 in1.3 mm
04:20 PM 64.3°F17.9°C 44.2°F6.8°C 48% 1.9 mph WSW3.1 kmh WSW 4.0 mph6.4 kmh 29.97 in1014.9 mb 0.00 in0.0 mm 0.00 in0.0 mm 0.05 in1.3 mm
04:40 PM 64.0°F17.8°C 43.4°F6.3°C 47% 1.0 mph NW1.6 kmh NW 4.0 mph6.4 kmh 29.97 in1014.9 mb 0.00 in0.0 mm 0.00 in0.0 mm 0.05 in1.3 mm
05:00 PM 64.1°F17.8°C 42.9°F6.1°C 46% 1.0 mph NW1.6 kmh NW 3.0 mph4.8 kmh 29.97 in1014.9 mb 0.00 in0.0 mm 0.00 in0.0 mm 0.05 in1.3 mm
05:20 PM 64.5°F18.1°C 42.7°F5.9°C 45% 1.0 mph NNW1.6 kmh NNW 3.0 mph4.8 kmh 29.98 in1015.2 mb 0.00 in0.0 mm 0.00 in0.0 mm 0.05 in1.3 mm
05:40 PM 64.4°F18.0°C 43.2°F6.2°C 46% 0.3 mph E0.5 kmh E 2.0 mph3.2 kmh 29.98 in1015.2 mb 0.00 in0.0 mm 0.00 in0.0 mm 0.05 in1.3 mm
06:00 PM 63.4°F17.4°C 43.4°F6.3°C 48% 0.2 mph E0.3 kmh E 2.0 mph3.2 kmh 29.98 in1015.2 mb 0.00 in0.0 mm 0.00 in0.0 mm 0.05 in1.3 mm
06:20 PM 62.2°F16.8°C 43.8°F6.6°C 51% 0.1 mph 0.2 kmh -- 29.99 in1015.6 mb 0.00 in0.0 mm 0.00 in0.0 mm 0.05 in1.3 mm
06:40 PM 60.6°F15.9°C 44.8°F7.1°C 56% 2.3 mph SW3.7 kmh SW 6.0 mph9.7 kmh 29.99 in1015.6 mb 0.00 in0.0 mm 0.00 in0.0 mm 0.05 in1.3 mm
07:00 PM 59.8°F15.4°C 45.4°F7.4°C 59% 2.0 mph SW3.2 kmh SW 4.0 mph6.4 kmh 30.00 in1015.9 mb 0.00 in0.0 mm 0.00 in0.0 mm 0.05 in1.3 mm
07:20 PM 59.1°F15.1°C 45.2°F7.3°C 60% 1.9 mph SW3.1 kmh SW 5.0 mph8.0 kmh 30.01 in1016.3 mb 0.00 in0.0 mm 0.00 in0.0 mm 0.05 in1.3 mm
07:40 PM 58.6°F14.8°C 45.2°F7.3°C 61% 1.0 mph SW1.6 kmh SW 2.0 mph3.2 kmh 30.02 in1016.6 mb 0.00 in0.0 mm 0.00 in0.0 mm 0.05 in1.3 mm
08:00 PM 58.3°F14.6°C 44.9°F7.2°C 61% 1.7 mph SW2.7 kmh SW 3.0 mph4.8 kmh 30.02 in1016.6 mb 0.00 in0.0 mm 0.00 in0.0 mm 0.05 in1.3 mm
08:20 PM 57.7°F14.3°C 45.2°F7.3°C 63% Calm Calm 2.0 mph3.2 kmh 30.02 in1016.6 mb 0.00 in0.0 mm 0.00 in0.0 mm 0.05 in1.3 mm
08:40 PM 57.1°F13.9°C 45.4°F7.4°C 65% 2.0 mph WNW3.2 kmh WNW 4.0 mph6.4 kmh 30.04 in1017.3 mb 0.00 in0.0 mm 0.00 in0.0 mm 0.05 in1.3 mm
09:00 PM 56.7°F13.7°C 45.5°F7.5°C 66% Calm Calm -- 30.04 in1017.3 mb 0.00 in0.0 mm 0.00 in0.0 mm 0.05 in1.3 mm
09:20 PM 56.8°F13.8°C 45.6°F7.6°C 66% Calm Calm -- 30.05 in1017.6 mb 0.00 in0.0 mm 0.00 in0.0 mm 0.05 in1.3 mm
09:40 PM 56.6°F13.7°C 45.4°F7.4°C 66% Calm Calm -- 30.05 in1017.6 mb 0.00 in0.0 mm 0.00 in0.0 mm 0.05 in1.3 mm
10:00 PM 56.2°F13.4°C 43.3°F6.3°C 62% 1.9 mph NNW3.1 kmh NNW 6.0 mph9.7 kmh 30.05 in1017.6 mb 0.00 in0.0 mm 0.00 in0.0 mm 0.05 in1.3 mm
10:20 PM 55.7°F13.2°C 43.3°F6.3°C 63% 3.3 mph NW5.3 kmh NW 7.0 mph11.3 kmh 30.05 in1017.6 mb 0.00 in0.0 mm 0.00 in0.0 mm 0.05 in1.3 mm
10:40 PM 55.4°F13.0°C 43.0°F6.1°C 63% 2.9 mph NNW4.7 kmh NNW 6.0 mph9.7 kmh 30.06 in1017.9 mb 0.00 in0.0 mm 0.00 in0.0 mm 0.05 in1.3 mm
11:00 PM 55.2°F12.9°C 43.2°F6.2°C 64% 3.0 mph NNW4.8 kmh NNW 5.0 mph8.0 kmh 30.06 in1017.9 mb 0.00 in0.0 mm 0.00 in0.0 mm 0.05 in1.3 mm
11:20 PM 54.5°F12.5°C 43.0°F6.1°C 65% 1.0 mph N1.6 kmh N 2.0 mph3.2 kmh 30.06 in1017.9 mb 0.00 in0.0 mm 0.00 in0.0 mm 0.05 in1.3 mm
11:40 PM 54.0°F12.2°C 42.9°F6.1°C 66% 1.5 mph NNE2.4 kmh NNE 4.0 mph6.4 kmh 30.06 in1017.9 mb 0.00 in0.0 mm 0.00 in0.0 mm 0.05 in1.3 mm